sensor_id;sensor_type;location;lat;lon;timestamp;temperature;humidity
19025;DHT22;9645;51.448;6.260;2023-02-28T00:00:12;-0.80;99.90
19025;DHT22;9645;51.448;6.260;2023-02-28T00:02:41;0.10;99.90
19025;DHT22;9645;51.448;6.260;2023-02-28T00:05:10;-0.70;99.90
19025;DHT22;9645;51.448;6.260;2023-02-28T00:10:06;-0.90;99.90
19025;DHT22;9645;51.448;6.260;2023-02-28T00:12:34;-1.00;99.90
19025;DHT22;9645;51.448;6.260;2023-02-28T00:15:05;-0.90;99.90
19025;DHT22;9645;51.448;6.260;2023-02-28T00:17:33;-1.00;99.90
19025;DHT22;9645;51.448;6.260;2023-02-28T00:20:00;-1.30;99.90
19025;DHT22;9645;51.448;6.260;2023-02-28T00:22:38;-1.00;99.90
19025;DHT22;9645;51.448;6.260;2023-02-28T00:25:06;-0.50;99.90
19025;DHT22;9645;51.448;6.260;2023-02-28T00:30:03;-1.20;99.90
19025;DHT22;9645;51.448;6.260;2023-02-28T00:32:30;-1.30;99.90
19025;DHT22;9645;51.448;6.260;2023-02-28T00:37:25;-1.30;99.90
19025;DHT22;9645;51.448;6.260;2023-02-28T00:39:52;-1.30;99.90
19025;DHT22;9645;51.448;6.260;2023-02-28T00:42:19;-1.50;99.90
19025;DHT22;9645;51.448;6.260;2023-02-28T00:47:14;-1.20;99.90
19025;DHT22;9645;51.448;6.260;2023-02-28T00:49:41;-1.20;99.90
19025;DHT22;9645;51.448;6.260;2023-02-28T00:57:03;-1.30;99.90
19025;DHT22;9645;51.448;6.260;2023-02-28T00:59:30;-1.20;99.90
19025;DHT22;9645;51.448;6.260;2023-02-28T01:04:25;-1.30;99.90
19025;DHT22;9645;51.448;6.260;2023-02-28T01:06:52;-1.40;99.90
19025;DHT22;9645;51.448;6.260;2023-02-28T01:09:19;-1.30;99.90
19025;DHT22;9645;51.448;6.260;2023-02-28T01:14:16;-1.30;99.90
19025;DHT22;9645;51.448;6.260;2023-02-28T01:19:10;-1.50;99.90
19025;DHT22;9645;51.448;6.260;2023-02-28T01:21:40;-1.50;99.90
19025;DHT22;9645;51.448;6.260;2023-02-28T01:26:34;-1.50;99.90
19025;DHT22;9645;51.448;6.260;2023-02-28T01:31:28;-1.60;99.90
19025;DHT22;9645;51.448;6.260;2023-02-28T01:36:24;-0.70;99.90
19025;DHT22;9645;51.448;6.260;2023-02-28T01:38:53;-1.70;99.90
19025;DHT22;9645;51.448;6.260;2023-02-28T01:41:22;-1.60;99.90
19025;DHT22;9645;51.448;6.260;2023-02-28T01:43:56;-1.60;99.90
19025;DHT22;9645;51.448;6.260;2023-02-28T01:46:23;-1.70;99.90
19025;DHT22;9645;51.448;6.260;2023-02-28T01:48:54;-0.30;99.90
19025;DHT22;9645;51.448;6.260;2023-02-28T01:51:29;-1.50;99.90
19025;DHT22;9645;51.448;6.260;2023-02-28T01:54:01;-1.50;99.90
19025;DHT22;9645;51.448;6.260;2023-02-28T01:56:32;-1.50;99.90
19025;DHT22;9645;51.448;6.260;2023-02-28T01:59:00;-1.70;99.90
19025;DHT22;9645;51.448;6.260;2023-02-28T02:01:27;-1.60;99.90
19025;DHT22;9645;51.448;6.260;2023-02-28T02:03:57;-1.60;99.90
19025;DHT22;9645;51.448;6.260;2023-02-28T02:06:28;-1.60;99.90
19025;DHT22;9645;51.448;6.260;2023-02-28T02:11:24;-1.60;99.90
19025;DHT22;9645;51.448;6.260;2023-02-28T02:14:11;-1.50;99.90
19025;DHT22;9645;51.448;6.260;2023-02-28T02:16:51;-1.70;99.90
19025;DHT22;9645;51.448;6.260;2023-02-28T02:22:37;-1.70;99.90
19025;DHT22;9645;51.448;6.260;2023-02-28T02:25:25;-1.80;99.90
19025;DHT22;9645;51.448;6.260;2023-02-28T02:34:08;-1.80;99.90
19025;DHT22;9645;51.448;6.260;2023-02-28T02:36:42;-1.80;99.90
19025;DHT22;9645;51.448;6.260;2023-02-28T02:39:17;-1.80;99.90
19025;DHT22;9645;51.448;6.260;2023-02-28T02:41:49;-1.80;99.90
19025;DHT22;9645;51.448;6.260;2023-02-28T02:44:21;-1.80;99.90
19025;DHT22;9645;51.448;6.260;2023-02-28T02:46:53;-1.70;99.90
19025;DHT22;9645;51.448;6.260;2023-02-28T02:49:26;-1.80;99.90
19025;DHT22;9645;51.448;6.260;2023-02-28T02:51:56;-1.80;99.90
19025;DHT22;9645;51.448;6.260;2023-02-28T02:54:27;-1.90;99.90
19025;DHT22;9645;51.448;6.260;2023-02-28T02:56:57;-1.90;99.90
19025;DHT22;9645;51.448;6.260;2023-02-28T02:59:25;-2.00;99.90
19025;DHT22;9645;51.448;6.260;2023-02-28T03:01:58;-2.10;99.90
19025;DHT22;9645;51.448;6.260;2023-02-28T03:04:31;-2.10;99.90
19025;DHT22;9645;51.448;6.260;2023-02-28T03:09:26;-2.20;99.90
19025;DHT22;9645;51.448;6.260;2023-02-28T03:11:55;-2.20;99.90
19025;DHT22;9645;51.448;6.260;2023-02-28T03:14:37;-2.20;99.90
19025;DHT22;9645;51.448;6.260;2023-02-28T03:17:23;-2.20;99.90
19025;DHT22;9645;51.448;6.260;2023-02-28T03:20:03;-2.10;99.90
19025;DHT22;9645;51.448;6.260;2023-02-28T03:22:54;-2.10;99.90
19025;DHT22;9645;51.448;6.260;2023-02-28T03:25:31;-2.10;99.90
19025;DHT22;9645;51.448;6.260;2023-02-28T03:28:06;-2.20;99.90
19025;DHT22;9645;51.448;6.260;2023-02-28T03:30:40;-2.30;99.90
19025;DHT22;9645;51.448;6.260;2023-02-28T03:33:11;-2.30;99.90
19025;DHT22;9645;51.448;6.260;2023-02-28T03:35:43;-2.40;99.90
19025;DHT22;9645;51.448;6.260;2023-02-28T03:38:15;-2.50;99.90
19025;DHT22;9645;51.448;6.260;2023-02-28T03:40:47;-2.60;99.90
19025;DHT22;9645;51.448;6.260;2023-02-28T03:43:21;-2.70;99.90
19025;DHT22;9645;51.448;6.260;2023-02-28T03:45:50;-2.70;99.90
19025;DHT22;9645;51.448;6.260;2023-02-28T03:48:22;-2.70;99.90
19025;DHT22;9645;51.448;6.260;2023-02-28T03:50:54;-2.80;99.90
19025;DHT22;9645;51.448;6.260;2023-02-28T03:53:25;-2.70;99.90
19025;DHT22;9645;51.448;6.260;2023-02-28T03:55:59;-2.80;99.90
19025;DHT22;9645;51.448;6.260;2023-02-28T03:58:31;-3.00;99.90
19025;DHT22;9645;51.448;6.260;2023-02-28T04:01:05;-2.80;99.90
19025;DHT22;9645;51.448;6.260;2023-02-28T04:03:35;-2.90;99.90
19025;DHT22;9645;51.448;6.260;2023-02-28T04:06:04;-2.80;99.90
19025;DHT22;9645;51.448;6.260;2023-02-28T04:08:32;-2.60;99.90
19025;DHT22;9645;51.448;6.260;2023-02-28T04:11:03;-2.70;99.90
19025;DHT22;9645;51.448;6.260;2023-02-28T04:13:31;-2.80;99.90
19025;DHT22;9645;51.448;6.260;2023-02-28T04:15:58;-2.70;99.90
19025;DHT22;9645;51.448;6.260;2023-02-28T04:20:52;-2.70;99.90
19025;DHT22;9645;51.448;6.260;2023-02-28T04:23:20;-2.80;99.90
19025;DHT22;9645;51.448;6.260;2023-02-28T04:25:48;-2.80;99.90
19025;DHT22;9645;51.448;6.260;2023-02-28T04:33:11;-2.80;99.90
19025;DHT22;9645;51.448;6.260;2023-02-28T04:35:38;-2.70;99.90
19025;DHT22;9645;51.448;6.260;2023-02-28T04:40:35;-2.60;99.90
19025;DHT22;9645;51.448;6.260;2023-02-28T04:43:02;-2.60;99.90
19025;DHT22;9645;51.448;6.260;2023-02-28T04:50:25;-2.60;99.90
19025;DHT22;9645;51.448;6.260;2023-02-28T04:57:48;-3.00;99.90
19025;DHT22;9645;51.448;6.260;2023-02-28T05:00:16;-2.90;99.90
19025;DHT22;9645;51.448;6.260;2023-02-28T05:10:10;-3.00;99.90
19025;DHT22;9645;51.448;6.260;2023-02-28T05:15:09;-3.00;99.90
19025;DHT22;9645;51.448;6.260;2023-02-28T05:20:07;-3.10;99.90
19025;DHT22;9645;51.448;6.260;2023-02-28T05:25:04;-3.20;99.90
19025;DHT22;9645;51.448;6.260;2023-02-28T05:27:31;-3.30;99.90
19025;DHT22;9645;51.448;6.260;2023-02-28T05:29:58;-2.70;99.90
19025;DHT22;9645;51.448;6.260;2023-02-28T05:32:30;-3.30;99.90
19025;DHT22;9645;51.448;6.260;2023-02-28T05:37:24;-3.50;99.90
19025;DHT22;9645;51.448;6.260;2023-02-28T05:44:46;-3.30;99.90
19025;DHT22;9645;51.448;6.260;2023-02-28T05:49:42;-3.30;99.90
19025;DHT22;9645;51.448;6.260;2023-02-28T06:01:58;-3.10;99.90
19025;DHT22;9645;51.448;6.260;2023-02-28T06:06:53;-3.30;99.90
19025;DHT22;9645;51.448;6.260;2023-02-28T06:11:50;-3.10;99.90
19025;DHT22;9645;51.448;6.260;2023-02-28T06:14:19;-3.10;99.90
19025;DHT22;9645;51.448;6.260;2023-02-28T06:16:46;-3.10;99.90
19025;DHT22;9645;51.448;6.260;2023-02-28T06:21:41;-3.10;99.90
19025;DHT22;9645;51.448;6.260;2023-02-28T06:24:10;-3.10;99.90
19025;DHT22;9645;51.448;6.260;2023-02-28T06:36:26;-2.90;99.90
19025;DHT22;9645;51.448;6.260;2023-02-28T06:41:24;-2.80;99.90
19025;DHT22;9645;51.448;6.260;2023-02-28T06:43:51;-2.80;99.90
19025;DHT22;9645;51.448;6.260;2023-02-28T06:46:19;-2.90;99.90
19025;DHT22;9645;51.448;6.260;2023-02-28T06:48:46;-2.70;99.90
19025;DHT22;9645;51.448;6.260;2023-02-28T06:51:15;-2.70;99.90
19025;DHT22;9645;51.448;6.260;2023-02-28T06:53:42;-2.70;99.90
19025;DHT22;9645;51.448;6.260;2023-02-28T06:56:15;-2.70;99.90
19025;DHT22;9645;51.448;6.260;2023-02-28T06:58:46;-2.60;99.90
19025;DHT22;9645;51.448;6.260;2023-02-28T07:01:14;-2.70;99.90
19025;DHT22;9645;51.448;6.260;2023-02-28T07:06:08;-2.50;99.90
19025;DHT22;9645;51.448;6.260;2023-02-28T07:11:03;0.10;99.90
19025;DHT22;9645;51.448;6.260;2023-02-28T07:16:02;4.20;99.90
19025;DHT22;9645;51.448;6.260;2023-02-28T07:18:29;6.00;99.90
19025;DHT22;9645;51.448;6.260;2023-02-28T07:23:24;8.70;99.90
19025;DHT22;9645;51.448;6.260;2023-02-28T07:25:52;9.20;99.90
19025;DHT22;9645;51.448;6.260;2023-02-28T07:28:19;10.30;99.90
19025;DHT22;9645;51.448;6.260;2023-02-28T07:30:47;11.00;99.90
19025;DHT22;9645;51.448;6.260;2023-02-28T07:33:16;11.20;99.90
19025;DHT22;9645;51.448;6.260;2023-02-28T07:35:43;10.50;99.90
19025;DHT22;9645;51.448;6.260;2023-02-28T07:38:10;9.10;99.90
19025;DHT22;9645;51.448;6.260;2023-02-28T07:40:39;9.00;99.90
19025;DHT22;9645;51.448;6.260;2023-02-28T07:43:06;7.50;99.90
19025;DHT22;9645;51.448;6.260;2023-02-28T07:45:33;8.20;99.90
19025;DHT22;9645;51.448;6.260;2023-02-28T07:48:01;9.10;99.90
19025;DHT22;9645;51.448;6.260;2023-02-28T07:50:30;11.50;99.90
19025;DHT22;9645;51.448;6.260;2023-02-28T07:52:57;8.20;99.90
19025;DHT22;9645;51.448;6.260;2023-02-28T07:55:24;8.30;99.90
19025;DHT22;9645;51.448;6.260;2023-02-28T08:00:19;9.60;99.90
19025;DHT22;9645;51.448;6.260;2023-02-28T08:02:47;10.10;99.90
19025;DHT22;9645;51.448;6.260;2023-02-28T08:05:14;10.10;99.90
19025;DHT22;9645;51.448;6.260;2023-02-28T08:07:42;10.50;99.90
19025;DHT22;9645;51.448;6.260;2023-02-28T08:10:10;11.00;99.90
19025;DHT22;9645;51.448;6.260;2023-02-28T08:12:37;12.10;99.90
19025;DHT22;9645;51.448;6.260;2023-02-28T08:15:04;13.20;99.90
19025;DHT22;9645;51.448;6.260;2023-02-28T08:19:59;16.10;99.90
19025;DHT22;9645;51.448;6.260;2023-02-28T08:24:55;17.80;99.90
19025;DHT22;9645;51.448;6.260;2023-02-28T08:27:22;18.60;99.90
19025;DHT22;9645;51.448;6.260;2023-02-28T08:29:49;19.40;99.90
19025;DHT22;9645;51.448;6.260;2023-02-28T08:32:16;20.10;99.90
19025;DHT22;9645;51.448;6.260;2023-02-28T08:34:43;19.70;99.90
19025;DHT22;9645;51.448;6.260;2023-02-28T08:37:10;19.80;99.90
19025;DHT22;9645;51.448;6.260;2023-02-28T08:39:38;20.30;99.90
19025;DHT22;9645;51.448;6.260;2023-02-28T08:42:06;20.70;99.90
19025;DHT22;9645;51.448;6.260;2023-02-28T08:44:33;20.30;99.90
19025;DHT22;9645;51.448;6.260;2023-02-28T08:47:00;20.80;99.90
19025;DHT22;9645;51.448;6.260;2023-02-28T08:49:27;21.20;99.90
19025;DHT22;9645;51.448;6.260;2023-02-28T08:51:54;21.20;99.90
19025;DHT22;9645;51.448;6.260;2023-02-28T08:54:22;21.60;99.90
19025;DHT22;9645;51.448;6.260;2023-02-28T08:56:50;21.70;99.90
19025;DHT22;9645;51.448;6.260;2023-02-28T08:59:18;22.00;99.90
19025;DHT22;9645;51.448;6.260;2023-02-28T09:01:45;22.30;99.90
19025;DHT22;9645;51.448;6.260;2023-02-28T09:04:12;22.30;99.90
19025;DHT22;9645;51.448;6.260;2023-02-28T09:06:39;23.70;99.90
19025;DHT22;9645;51.448;6.260;2023-02-28T09:09:06;23.70;99.90
19025;DHT22;9645;51.448;6.260;2023-02-28T09:11:35;22.90;99.90
19025;DHT22;9645;51.448;6.260;2023-02-28T09:14:02;22.60;99.90
19025;DHT22;9645;51.448;6.260;2023-02-28T09:16:32;22.00;99.90
19025;DHT22;9645;51.448;6.260;2023-02-28T09:18:59;22.20;99.90
19025;DHT22;9645;51.448;6.260;2023-02-28T09:21:26;22.00;99.90
19025;DHT22;9645;51.448;6.260;2023-02-28T09:23:53;22.50;99.90
19025;DHT22;9645;51.448;6.260;2023-02-28T09:26:22;21.40;99.90
19025;DHT22;9645;51.448;6.260;2023-02-28T09:28:51;21.70;99.90
19025;DHT22;9645;51.448;6.260;2023-02-28T09:31:21;21.50;99.90
19025;DHT22;9645;51.448;6.260;2023-02-28T09:33:52;21.90;99.90
19025;DHT22;9645;51.448;6.260;2023-02-28T09:36:21;22.40;99.90
19025;DHT22;9645;51.448;6.260;2023-02-28T09:38:48;22.20;99.90
19025;DHT22;9645;51.448;6.260;2023-02-28T09:41:20;22.10;99.90
19025;DHT22;9645;51.448;6.260;2023-02-28T09:43:50;22.00;99.90
19025;DHT22;9645;51.448;6.260;2023-02-28T09:46:30;22.10;99.90
19025;DHT22;9645;51.448;6.260;2023-02-28T09:49:02;22.80;99.90
19025;DHT22;9645;51.448;6.260;2023-02-28T09:51:39;22.80;99.90
19025;DHT22;9645;51.448;6.260;2023-02-28T10:57:06;18.80;99.90
19025;DHT22;9645;51.448;6.260;2023-02-28T10:59:35;19.60;99.90
19025;DHT22;9645;51.448;6.260;2023-02-28T11:04:34;20.00;99.90
19025;DHT22;9645;51.448;6.260;2023-02-28T11:07:06;20.00;99.90
19025;DHT22;9645;51.448;6.260;2023-02-28T11:09:45;20.60;99.90
19025;DHT22;9645;51.448;6.260;2023-02-28T11:12:21;20.40;99.90
19025;DHT22;9645;51.448;6.260;2023-02-28T11:14:51;20.30;99.90
19025;DHT22;9645;51.448;6.260;2023-02-28T11:17:21;19.90;99.90
19025;DHT22;9645;51.448;6.260;2023-02-28T11:19:51;18.60;99.90
19025;DHT22;9645;51.448;6.260;2023-02-28T11:22:23;18.70;99.90
19025;DHT22;9645;51.448;6.260;2023-02-28T11:24:56;19.40;99.90
19025;DHT22;9645;51.448;6.260;2023-02-28T11:27:45;19.10;99.90
19025;DHT22;9645;51.448;6.260;2023-02-28T11:30:29;19.40;99.90
19025;DHT22;9645;51.448;6.260;2023-02-28T11:32:57;20.10;99.90
19025;DHT22;9645;51.448;6.260;2023-02-28T11:35:27;20.50;99.90
19025;DHT22;9645;51.448;6.260;2023-02-28T11:37:57;19.80;99.90
19025;DHT22;9645;51.448;6.260;2023-02-28T11:40:30;18.90;99.90
19025;DHT22;9645;51.448;6.260;2023-02-28T11:43:06;18.90;99.90
19025;DHT22;9645;51.448;6.260;2023-02-28T11:45:45;19.30;99.90
19025;DHT22;9645;51.448;6.260;2023-02-28T11:48:20;19.00;99.90
19025;DHT22;9645;51.448;6.260;2023-02-28T11:50:58;19.10;99.90
19025;DHT22;9645;51.448;6.260;2023-02-28T11:53:47;19.10;99.90
19025;DHT22;9645;51.448;6.260;2023-02-28T11:56:21;18.90;99.90
19025;DHT22;9645;51.448;6.260;2023-02-28T11:58:55;18.60;99.90
19025;DHT22;9645;51.448;6.260;2023-02-28T12:02:00;19.00;99.90
19025;DHT22;9645;51.448;6.260;2023-02-28T12:04:37;19.60;99.90
19025;DHT22;9645;51.448;6.260;2023-02-28T12:07:16;19.00;99.90
19025;DHT22;9645;51.448;6.260;2023-02-28T12:09:56;17.60;99.90
19025;DHT22;9645;51.448;6.260;2023-02-28T12:12:39;16.40;99.90
19025;DHT22;9645;51.448;6.260;2023-02-28T12:18:17;14.00;99.90
19025;DHT22;9645;51.448;6.260;2023-02-28T12:20:54;13.10;99.90
19025;DHT22;9645;51.448;6.260;2023-02-28T12:23:54;12.10;99.90
19025;DHT22;9645;51.448;6.260;2023-02-28T12:26:31;11.90;99.90
19025;DHT22;9645;51.448;6.260;2023-02-28T12:29:10;11.90;99.90
19025;DHT22;9645;51.448;6.260;2023-02-28T12:31:49;12.50;99.90
19025;DHT22;9645;51.448;6.260;2023-02-28T12:34:20;13.10;99.90
19025;DHT22;9645;51.448;6.260;2023-02-28T12:36:50;14.10;99.90
19025;DHT22;9645;51.448;6.260;2023-02-28T12:39:25;14.70;99.90
19025;DHT22;9645;51.448;6.260;2023-02-28T12:42:00;15.60;99.90
19025;DHT22;9645;51.448;6.260;2023-02-28T12:44:32;16.40;99.90
19025;DHT22;9645;51.448;6.260;2023-02-28T12:47:02;16.90;99.90
19025;DHT22;9645;51.448;6.260;2023-02-28T12:49:33;17.00;99.90
19025;DHT22;9645;51.448;6.260;2023-02-28T12:52:02;17.90;99.90
19025;DHT22;9645;51.448;6.260;2023-02-28T12:54:33;18.20;99.90
19025;DHT22;9645;51.448;6.260;2023-02-28T12:57:09;18.30;99.90
19025;DHT22;9645;51.448;6.260;2023-02-28T12:59:41;18.20;99.90
19025;DHT22;9645;51.448;6.260;2023-02-28T13:02:33;18.30;99.90
19025;DHT22;9645;51.448;6.260;2023-02-28T13:05:23;18.80;99.90
19025;DHT22;9645;51.448;6.260;2023-02-28T13:08:10;18.80;99.90
19025;DHT22;9645;51.448;6.260;2023-02-28T13:10:44;19.50;99.90
19025;DHT22;9645;51.448;6.260;2023-02-28T13:13:19;18.20;99.90
19025;DHT22;9645;51.448;6.260;2023-02-28T13:15:58;18.10;99.90
19025;DHT22;9645;51.448;6.260;2023-02-28T13:18:30;17.80;99.90
19025;DHT22;9645;51.448;6.260;2023-02-28T13:20:58;17.40;99.90
19025;DHT22;9645;51.448;6.260;2023-02-28T13:23:59;16.90;99.90
19025;DHT22;9645;51.448;6.260;2023-02-28T13:29:34;17.10;99.90
19025;DHT22;9645;51.448;6.260;2023-02-28T13:32:33;15.30;99.90
19025;DHT22;9645;51.448;6.260;2023-02-28T13:35:43;16.80;99.90
19025;DHT22;9645;51.448;6.260;2023-02-28T13:44:05;15.30;99.90
19025;DHT22;9645;51.448;6.260;2023-02-28T13:46:35;14.40;99.90
19025;DHT22;9645;51.448;6.260;2023-02-28T13:49:25;14.00;99.90
19025;DHT22;9645;51.448;6.260;2023-02-28T13:52:00;13.60;99.90
19025;DHT22;9645;51.448;6.260;2023-02-28T13:54:39;13.20;99.90
19025;DHT22;9645;51.448;6.260;2023-02-28T13:57:22;13.30;99.90
19025;DHT22;9645;51.448;6.260;2023-02-28T14:00:00;13.40;99.90
19025;DHT22;9645;51.448;6.260;2023-02-28T14:03:01;13.50;99.90
19025;DHT22;9645;51.448;6.260;2023-02-28T14:05:32;11.00;99.90
19025;DHT22;9645;51.448;6.260;2023-02-28T14:08:05;12.90;99.90
19025;DHT22;9645;51.448;6.260;2023-02-28T14:10:36;12.20;99.90
19025;DHT22;9645;51.448;6.260;2023-02-28T14:13:14;12.20;99.90
19025;DHT22;9645;51.448;6.260;2023-02-28T14:16:04;11.90;99.90
19025;DHT22;9645;51.448;6.260;2023-02-28T14:18:34;11.50;99.90
19025;DHT22;9645;51.448;6.260;2023-02-28T14:21:11;11.00;99.90
19025;DHT22;9645;51.448;6.260;2023-02-28T14:24:02;10.80;99.90
19025;DHT22;9645;51.448;6.260;2023-02-28T14:26:49;10.50;99.90
19025;DHT22;9645;51.448;6.260;2023-02-28T14:32:43;10.20;99.90
19025;DHT22;9645;51.448;6.260;2023-02-28T14:35:20;9.70;99.90
19025;DHT22;9645;51.448;6.260;2023-02-28T14:37:51;9.20;99.90
19025;DHT22;9645;51.448;6.260;2023-02-28T14:40:23;9.20;99.90
19025;DHT22;9645;51.448;6.260;2023-02-28T14:42:56;9.20;99.90
19025;DHT22;9645;51.448;6.260;2023-02-28T14:45:23;8.80;99.90
19025;DHT22;9645;51.448;6.260;2023-02-28T14:47:52;8.90;99.90
19025;DHT22;9645;51.448;6.260;2023-02-28T14:50:20;8.60;99.90
19025;DHT22;9645;51.448;6.260;2023-02-28T14:52:49;8.40;99.90
19025;DHT22;9645;51.448;6.260;2023-02-28T14:55:19;8.20;99.90
19025;DHT22;9645;51.448;6.260;2023-02-28T14:57:52;8.30;99.90
19025;DHT22;9645;51.448;6.260;2023-02-28T15:00:23;8.20;99.90
19025;DHT22;9645;51.448;6.260;2023-02-28T15:02:52;8.10;99.90
19025;DHT22;9645;51.448;6.260;2023-02-28T15:05:29;8.00;99.90
19025;DHT22;9645;51.448;6.260;2023-02-28T15:08:11;8.00;99.90
19025;DHT22;9645;51.448;6.260;2023-02-28T15:10:40;8.10;99.90
19025;DHT22;9645;51.448;6.260;2023-02-28T15:13:13;8.10;99.90
19025;DHT22;9645;51.448;6.260;2023-02-28T15:15:49;8.00;99.90
19025;DHT22;9645;51.448;6.260;2023-02-28T15:18:30;7.80;99.90
19025;DHT22;9645;51.448;6.260;2023-02-28T15:21:01;7.50;99.90
19025;DHT22;9645;51.448;6.260;2023-02-28T15:23:29;7.30;99.90
19025;DHT22;9645;51.448;6.260;2023-02-28T15:25:57;7.60;99.90
19025;DHT22;9645;51.448;6.260;2023-02-28T15:28:25;7.50;99.90
19025;DHT22;9645;51.448;6.260;2023-02-28T15:30:56;7.30;99.90
19025;DHT22;9645;51.448;6.260;2023-02-28T15:33:25;7.30;99.90
19025;DHT22;9645;51.448;6.260;2023-02-28T15:36:13;7.20;99.90
19025;DHT22;9645;51.448;6.260;2023-02-28T15:38:42;7.10;99.90
19025;DHT22;9645;51.448;6.260;2023-02-28T15:41:23;7.10;99.90
19025;DHT22;9645;51.448;6.260;2023-02-28T15:44:14;7.20;99.90
19025;DHT22;9645;51.448;6.260;2023-02-28T15:46:44;7.40;99.90
19025;DHT22;9645;51.448;6.260;2023-02-28T15:49:19;7.50;99.90
19025;DHT22;9645;51.448;6.260;2023-02-28T15:51:49;7.40;99.90
19025;DHT22;9645;51.448;6.260;2023-02-28T15:54:20;7.50;99.90
19025;DHT22;9645;51.448;6.260;2023-02-28T15:56:51;7.50;99.90
19025;DHT22;9645;51.448;6.260;2023-02-28T15:59:21;7.50;99.90
19025;DHT22;9645;51.448;6.260;2023-02-28T16:02:12;7.50;99.90
19025;DHT22;9645;51.448;6.260;2023-02-28T16:04:59;7.80;99.90
19025;DHT22;9645;51.448;6.260;2023-02-28T16:07:28;8.00;99.90
19025;DHT22;9645;51.448;6.260;2023-02-28T16:09:55;8.50;99.90
19025;DHT22;9645;51.448;6.260;2023-02-28T16:12:28;8.50;99.90
19025;DHT22;9645;51.448;6.260;2023-02-28T16:14:58;8.30;99.90
19025;DHT22;9645;51.448;6.260;2023-02-28T16:17:28;8.50;99.90
19025;DHT22;9645;51.448;6.260;2023-02-28T16:19:56;8.70;99.90
19025;DHT22;9645;51.448;6.260;2023-02-28T16:24:52;8.80;99.90
19025;DHT22;9645;51.448;6.260;2023-02-28T16:27:23;8.50;99.90
19025;DHT22;9645;51.448;6.260;2023-02-28T16:29:50;8.00;99.90
19025;DHT22;9645;51.448;6.260;2023-02-28T16:37:13;6.70;99.90
19025;DHT22;9645;51.448;6.260;2023-02-28T16:39:41;6.40;99.90
19025;DHT22;9645;51.448;6.260;2023-02-28T16:42:16;5.90;99.90
19025;DHT22;9645;51.448;6.260;2023-02-28T16:47:15;5.40;99.90
19025;DHT22;9645;51.448;6.260;2023-02-28T16:52:11;5.00;99.90
19025;DHT22;9645;51.448;6.260;2023-02-28T16:57:06;4.70;99.90
19025;DHT22;9645;51.448;6.260;2023-02-28T16:59:39;4.60;99.90
19025;DHT22;9645;51.448;6.260;2023-02-28T17:02:08;4.50;99.90
19025;DHT22;9645;51.448;6.260;2023-02-28T17:04:37;4.50;99.90
19025;DHT22;9645;51.448;6.260;2023-02-28T17:07:04;4.40;99.90
19025;DHT22;9645;51.448;6.260;2023-02-28T17:09:31;4.20;99.90
19025;DHT22;9645;51.448;6.260;2023-02-28T17:11:58;3.70;99.90
19025;DHT22;9645;51.448;6.260;2023-02-28T17:14:25;4.10;99.90
19025;DHT22;9645;51.448;6.260;2023-02-28T17:16:53;4.10;99.90
19025;DHT22;9645;51.448;6.260;2023-02-28T17:19:20;4.00;99.90
19025;DHT22;9645;51.448;6.260;2023-02-28T17:21:47;3.90;99.90
19025;DHT22;9645;51.448;6.260;2023-02-28T17:24:14;3.80;99.90
19025;DHT22;9645;51.448;6.260;2023-02-28T17:26:42;3.70;99.90
19025;DHT22;9645;51.448;6.260;2023-02-28T17:29:14;3.60;99.90
19025;DHT22;9645;51.448;6.260;2023-02-28T17:31:41;3.50;99.90
19025;DHT22;9645;51.448;6.260;2023-02-28T17:34:10;3.50;99.90
19025;DHT22;9645;51.448;6.260;2023-02-28T17:36:37;3.40;99.90
19025;DHT22;9645;51.448;6.260;2023-02-28T17:39:09;3.30;99.90
19025;DHT22;9645;51.448;6.260;2023-02-28T17:41:39;3.20;99.90
19025;DHT22;9645;51.448;6.260;2023-02-28T17:44:07;3.30;99.90
19025;DHT22;9645;51.448;6.260;2023-02-28T17:46:35;3.20;99.90
19025;DHT22;9645;51.448;6.260;2023-02-28T17:49:03;3.20;99.90
19025;DHT22;9645;51.448;6.260;2023-02-28T17:51:32;3.10;99.90
19025;DHT22;9645;51.448;6.260;2023-02-28T17:53:59;3.00;99.90
19025;DHT22;9645;51.448;6.260;2023-02-28T17:56:26;3.10;99.90
19025;DHT22;9645;51.448;6.260;2023-02-28T17:58:54;3.00;99.90
19025;DHT22;9645;51.448;6.260;2023-02-28T18:01:22;3.10;99.90
19025;DHT22;9645;51.448;6.260;2023-02-28T18:03:49;2.90;99.90
19025;DHT22;9645;51.448;6.260;2023-02-28T18:06:19;2.80;99.90
19025;DHT22;9645;51.448;6.260;2023-02-28T18:08:49;2.90;99.90
19025;DHT22;9645;51.448;6.260;2023-02-28T18:11:17;2.50;99.90
19025;DHT22;9645;51.448;6.260;2023-02-28T18:13:47;2.60;99.90
19025;DHT22;9645;51.448;6.260;2023-02-28T18:18:42;2.40;99.90
19025;DHT22;9645;51.448;6.260;2023-02-28T18:21:12;2.40;99.90
19025;DHT22;9645;51.448;6.260;2023-02-28T18:23:39;2.30;99.90
19025;DHT22;9645;51.448;6.260;2023-02-28T18:26:14;2.20;99.90
19025;DHT22;9645;51.448;6.260;2023-02-28T18:28:41;2.20;99.90
19025;DHT22;9645;51.448;6.260;2023-02-28T18:31:10;1.90;99.90
19025;DHT22;9645;51.448;6.260;2023-02-28T18:33:37;2.00;99.90
19025;DHT22;9645;51.448;6.260;2023-02-28T18:36:05;2.00;99.90
19025;DHT22;9645;51.448;6.260;2023-02-28T18:38:35;1.80;99.90
19025;DHT22;9645;51.448;6.260;2023-02-28T18:41:05;1.80;99.90
19025;DHT22;9645;51.448;6.260;2023-02-28T18:43:35;1.80;99.90
19025;DHT22;9645;51.448;6.260;2023-02-28T18:46:03;1.80;99.90
19025;DHT22;9645;51.448;6.260;2023-02-28T18:48:31;1.70;99.90
19025;DHT22;9645;51.448;6.260;2023-02-28T18:55:52;1.60;99.90
19025;DHT22;9645;51.448;6.260;2023-02-28T19:00:48;1.40;99.90
19025;DHT22;9645;51.448;6.260;2023-02-28T19:05:42;1.40;99.90
19025;DHT22;9645;51.448;6.260;2023-02-28T19:08:09;1.40;99.90
19025;DHT22;9645;51.448;6.260;2023-02-28T19:10:37;1.40;99.90
19025;DHT22;9645;51.448;6.260;2023-02-28T19:18:01;1.30;99.90
19025;DHT22;9645;51.448;6.260;2023-02-28T19:27:51;1.20;99.90
19025;DHT22;9645;51.448;6.260;2023-02-28T19:30:18;1.30;99.90
19025;DHT22;9645;51.448;6.260;2023-02-28T19:32:46;1.20;99.90
19025;DHT22;9645;51.448;6.260;2023-02-28T19:35:14;1.20;99.90
19025;DHT22;9645;51.448;6.260;2023-02-28T19:37:42;1.20;99.90
19025;DHT22;9645;51.448;6.260;2023-02-28T19:40:10;1.30;99.90
19025;DHT22;9645;51.448;6.260;2023-02-28T19:45:06;1.30;99.90
19025;DHT22;9645;51.448;6.260;2023-02-28T19:47:34;1.30;99.90
19025;DHT22;9645;51.448;6.260;2023-02-28T19:50:03;1.30;99.90
19025;DHT22;9645;51.448;6.260;2023-02-28T19:52:32;1.30;99.90
19025;DHT22;9645;51.448;6.260;2023-02-28T19:54:59;1.20;99.90
19025;DHT22;9645;51.448;6.260;2023-02-28T20:02:21;1.30;99.90
19025;DHT22;9645;51.448;6.260;2023-02-28T20:04:49;1.20;99.90
19025;DHT22;9645;51.448;6.260;2023-02-28T20:07:16;1.20;99.90
19025;DHT22;9645;51.448;6.260;2023-02-28T20:09:46;1.20;99.90
19025;DHT22;9645;51.448;6.260;2023-02-28T20:14:41;1.20;99.90
19025;DHT22;9645;51.448;6.260;2023-02-28T20:22:02;1.10;99.90
19025;DHT22;9645;51.448;6.260;2023-02-28T20:24:29;1.20;99.90
19025;DHT22;9645;51.448;6.260;2023-02-28T20:26:58;1.10;99.90
19025;DHT22;9645;51.448;6.260;2023-02-28T20:29:25;1.00;99.90
19025;DHT22;9645;51.448;6.260;2023-02-28T20:31:52;1.00;99.90
19025;DHT22;9645;51.448;6.260;2023-02-28T20:34:19;1.00;99.90
19025;DHT22;9645;51.448;6.260;2023-02-28T20:36:47;1.10;99.90
19025;DHT22;9645;51.448;6.260;2023-02-28T20:39:15;1.00;99.90
19025;DHT22;9645;51.448;6.260;2023-02-28T20:44:12;1.00;99.90
19025;DHT22;9645;51.448;6.260;2023-02-28T20:46:39;1.00;99.90
19025;DHT22;9645;51.448;6.260;2023-02-28T20:51:35;0.90;99.90